createdAt,value
2023-03-21T00:01:07.355Z,4.50
2023-03-21T00:03:35.405Z,6.23
2023-03-21T00:06:08.284Z,2.43
2023-03-21T00:08:35.999Z,6.20
2023-03-21T00:11:05.903Z,3.03
2023-03-21T00:13:34.269Z,4.57
2023-03-21T00:16:12.275Z,6.73
2023-03-21T00:18:42.020Z,6.93
2023-03-21T00:21:39.644Z,3.03
2023-03-21T00:24:02.780Z,2.77
2023-03-21T00:26:30.367Z,2.83
2023-03-21T00:28:57.998Z,4.57
2023-03-21T00:31:26.360Z,3.53
2023-03-21T00:33:53.997Z,5.17
2023-03-21T00:36:25.984Z,3.73
2023-03-21T00:38:53.643Z,3.10
2023-03-21T00:41:35.133Z,3.53
2023-03-21T00:44:08.420Z,5.47
2023-03-21T00:46:45.436Z,4.00
2023-03-21T00:49:16.851Z,5.30
2023-03-21T00:51:45.665Z,4.90
2023-03-21T00:54:13.827Z,6.80
2023-03-21T00:56:41.322Z,3.23
2023-03-21T00:59:08.827Z,2.83
2023-03-21T01:01:36.337Z,3.67
2023-03-21T01:04:05.538Z,4.43
2023-03-21T01:06:33.522Z,4.43
2023-03-21T01:09:02.334Z,2.70
2023-03-21T01:11:29.828Z,6.00
2023-03-21T01:14:10.958Z,3.40
2023-03-21T01:16:45.891Z,4.53
2023-03-21T01:19:25.018Z,4.47
2023-03-21T01:21:53.970Z,11.00
2023-03-21T01:24:22.791Z,8.60
2023-03-21T01:26:50.366Z,6.30
2023-03-21T01:29:17.828Z,5.87
2023-03-21T01:31:45.426Z,5.77
2023-03-21T01:34:13.041Z,3.87
2023-03-21T01:36:40.720Z,4.73
2023-03-21T01:39:08.226Z,4.73
2023-03-21T01:41:43.725Z,4.97
2023-03-21T01:44:15.929Z,3.67
2023-03-21T01:46:53.919Z,3.30
2023-03-21T01:49:34.108Z,5.13
2023-03-21T01:52:11.569Z,4.93
2023-03-21T01:54:42.184Z,3.37
2023-03-21T01:57:14.910Z,3.20
2023-03-21T01:59:44.404Z,3.10
2023-03-21T02:02:14.908Z,3.77
2023-03-21T02:04:50.702Z,4.27
2023-03-21T02:07:23.100Z,4.30
2023-03-21T02:09:51.197Z,6.53
2023-03-21T02:12:20.277Z,4.90
2023-03-21T02:14:49.368Z,2.97
2023-03-21T02:17:20.423Z,3.13
2023-03-21T02:20:22.010Z,7.13
2023-03-21T02:23:15.013Z,5.13
2023-03-21T02:26:01.134Z,3.70
2023-03-21T02:28:32.548Z,4.60
2023-03-21T02:31:19.843Z,4.90
2023-03-21T02:34:13.526Z,3.50
2023-03-21T02:37:01.036Z,4.70
2023-03-21T02:39:30.511Z,3.47
2023-03-21T02:42:04.563Z,4.20
2023-03-21T02:44:37.469Z,5.60
2023-03-21T02:47:08.848Z,3.47
2023-03-21T02:49:42.760Z,4.13
2023-03-21T02:52:18.817Z,5.07
2023-03-21T02:54:53.420Z,7.70
2023-03-21T02:57:21.980Z,3.63
2023-03-21T02:59:54.545Z,2.70
2023-03-21T03:02:26.225Z,4.50
2023-03-21T03:04:53.926Z,3.67
2023-03-21T03:07:32.765Z,6.90
2023-03-21T03:10:08.865Z,5.00
2023-03-21T03:12:45.271Z,3.67
2023-03-21T03:15:18.772Z,5.50
2023-03-21T03:17:52.143Z,4.97
2023-03-21T03:20:27.005Z,3.33
2023-03-21T03:23:00.716Z,3.93
2023-03-21T03:25:41.963Z,5.13
2023-03-21T03:28:11.047Z,4.20
2023-03-21T03:30:46.559Z,11.53
2023-03-21T03:33:23.481Z,3.00
2023-03-21T03:36:04.439Z,3.90
2023-03-21T03:38:35.452Z,3.77
2023-03-21T03:41:05.195Z,6.00
2023-03-21T03:43:35.697Z,4.00
2023-03-21T03:46:10.408Z,5.97
2023-03-21T03:48:46.508Z,4.10
2023-03-21T03:51:18.088Z,6.87
2023-03-21T03:53:48.590Z,3.93
2023-03-21T03:56:16.231Z,4.47
2023-03-21T03:58:46.056Z,4.40
2023-03-21T04:01:14.185Z,3.60
2023-03-21T04:03:49.806Z,2.97
2023-03-21T04:06:19.670Z,6.30
2023-03-21T04:08:48.504Z,3.70
2023-03-21T04:11:16.390Z,5.73
2023-03-21T04:13:43.924Z,6.57
2023-03-21T04:16:12.828Z,5.20
2023-03-21T04:18:40.402Z,3.07
2023-03-21T04:21:09.655Z,3.47
2023-03-21T04:23:37.650Z,5.60
2023-03-21T04:26:07.643Z,4.47
2023-03-21T04:28:36.091Z,4.83
2023-03-21T04:31:13.535Z,3.40
2023-03-21T04:33:50.074Z,6.50
2023-03-21T04:36:26.363Z,5.50
2023-03-21T04:38:54.753Z,8.70
2023-03-21T04:41:23.522Z,4.10
2023-03-21T04:43:52.608Z,4.80
2023-03-21T04:46:20.215Z,8.53
2023-03-21T04:48:48.827Z,5.17
2023-03-21T04:51:16.624Z,6.03
2023-03-21T04:53:45.700Z,4.63
2023-03-21T04:56:13.386Z,4.93
2023-03-21T04:58:42.290Z,3.63
2023-03-21T05:01:09.970Z,3.80
2023-03-21T05:03:40.616Z,7.47
2023-03-21T05:06:09.386Z,6.03
2023-03-21T05:08:37.640Z,4.80
2023-03-21T05:11:05.870Z,5.70
2023-03-21T05:13:33.323Z,5.77
2023-03-21T05:16:02.127Z,7.83
2023-03-21T05:18:34.735Z,5.13
2023-03-21T05:21:04.108Z,5.73
2023-03-21T05:23:31.629Z,5.63
2023-03-21T05:25:59.074Z,6.57
2023-03-21T05:28:31.369Z,7.27
2023-03-21T05:30:58.835Z,4.00
2023-03-21T05:33:27.672Z,5.30
2023-03-21T05:35:55.268Z,4.97
2023-03-21T05:38:22.756Z,6.73
2023-03-21T05:40:51.125Z,7.57
2023-03-21T05:43:18.916Z,4.83
2023-03-21T05:45:48.170Z,4.67
2023-03-21T05:48:15.926Z,5.07
2023-03-21T05:50:44.793Z,4.90
2023-03-21T05:53:12.605Z,5.53
2023-03-21T05:55:40.258Z,4.10
2023-03-21T05:58:07.904Z,6.00
2023-03-21T06:00:35.404Z,8.90
2023-03-21T06:03:02.930Z,6.73
2023-03-21T06:05:30.698Z,5.03
2023-03-21T06:07:59.528Z,7.10
2023-03-21T06:10:27.294Z,7.07
2023-03-21T06:12:54.738Z,7.57
2023-03-21T06:15:22.300Z,8.07
2023-03-21T06:17:49.754Z,9.50
2023-03-21T06:20:17.519Z,9.13
2023-03-21T06:22:44.983Z,6.27
2023-03-21T06:25:13.964Z,5.90
2023-03-21T06:27:41.707Z,8.03
2023-03-21T06:30:10.241Z,7.03
2023-03-21T06:32:37.743Z,4.93
2023-03-21T06:35:05.718Z,7.37
2023-03-21T06:37:33.141Z,6.50
2023-03-21T06:40:00.596Z,6.43
2023-03-21T06:42:29.993Z,8.80
2023-03-21T06:44:57.500Z,6.20
2023-03-21T06:47:25.175Z,6.23
2023-03-21T06:49:52.711Z,6.20
2023-03-21T06:52:20.478Z,7.30
2023-03-21T06:54:47.922Z,5.80
2023-03-21T06:57:15.366Z,7.90
2023-03-21T06:59:44.262Z,4.73
2023-03-21T07:02:11.940Z,9.73
2023-03-21T07:04:39.451Z,6.20
2023-03-21T07:07:06.942Z,5.63
2023-03-21T07:09:34.407Z,5.80
2023-03-21T07:12:01.912Z,7.00
2023-03-21T07:14:31.908Z,8.10
2023-03-21T07:17:00.849Z,8.80
2023-03-21T07:19:28.315Z,8.70
2023-03-21T07:21:55.819Z,8.93
2023-03-21T07:24:23.275Z,9.33
2023-03-21T07:26:50.879Z,7.63
2023-03-21T07:29:21.382Z,6.47
2023-03-21T07:31:48.922Z,8.13
2023-03-21T07:34:18.827Z,12.57
2023-03-21T07:36:46.335Z,6.53
2023-03-21T07:39:13.842Z,8.57
2023-03-21T07:41:41.332Z,7.53
2023-03-21T07:44:08.807Z,11.30
2023-03-21T07:46:36.293Z,9.13
2023-03-21T07:49:05.929Z,9.23
2023-03-21T07:51:35.308Z,10.10
2023-03-21T07:54:02.837Z,7.67
2023-03-21T07:56:30.446Z,6.17
2023-03-21T07:58:59.072Z,10.00
2023-03-21T08:01:27.182Z,6.77
2023-03-21T08:03:54.713Z,9.07
2023-03-21T08:06:22.201Z,5.67
2023-03-21T08:08:51.592Z,12.00
2023-03-21T08:11:21.412Z,7.90
2023-03-21T08:13:49.475Z,11.43
2023-03-21T08:16:16.947Z,7.70
2023-03-21T08:18:44.595Z,8.93
2023-03-21T08:21:12.041Z,6.00
2023-03-21T08:23:39.705Z,8.47
2023-03-21T08:26:09.229Z,5.57
2023-03-21T08:28:39.229Z,8.90
2023-03-21T08:31:08.882Z,8.20
2023-03-21T08:33:37.121Z,9.00
2023-03-21T08:36:05.705Z,6.50
2023-03-21T08:38:33.466Z,10.43
2023-03-21T08:41:01.123Z,8.33
2023-03-21T08:43:30.463Z,8.83
2023-03-21T08:45:58.019Z,5.80
2023-03-21T08:48:25.614Z,6.43
2023-03-21T08:50:53.084Z,8.03
2023-03-21T08:53:20.536Z,6.70
2023-03-21T08:55:48.008Z,7.47
2023-03-21T08:58:15.562Z,9.23
2023-03-21T09:00:44.441Z,8.37
2023-03-21T09:03:12.104Z,7.30
2023-03-21T09:05:39.977Z,7.40
2023-03-21T09:08:07.698Z,7.70
2023-03-21T09:10:35.265Z,11.60
2023-03-21T09:13:02.704Z,8.27
2023-03-21T09:15:30.220Z,7.33
2023-03-21T09:18:12.916Z,7.60
2023-03-21T09:20:40.850Z,5.90
2023-03-21T09:23:08.453Z,8.27
2023-03-21T09:25:36.743Z,6.77
2023-03-21T09:28:05.109Z,7.93
2023-03-21T09:30:33.893Z,6.00
2023-03-21T09:33:06.434Z,7.43
2023-03-21T09:35:34.739Z,8.13
2023-03-21T09:38:02.924Z,8.10
2023-03-21T09:40:47.670Z,10.97
2023-03-21T09:43:24.266Z,8.80
2023-03-21T09:45:54.832Z,8.83
2023-03-21T09:48:33.533Z,8.13
2023-03-21T09:51:02.947Z,9.07
2023-03-21T09:53:34.201Z,8.37
2023-03-21T09:56:03.550Z,6.73
2023-03-21T09:58:33.555Z,8.60
2023-03-21T10:01:05.294Z,6.37
2023-03-21T10:03:36.187Z,6.23
2023-03-21T10:06:08.159Z,10.43
2023-03-21T10:08:38.613Z,6.60
2023-03-21T10:11:15.251Z,8.53
2023-03-21T10:13:45.780Z,4.37
2023-03-21T10:16:16.218Z,6.23
2023-03-21T10:18:46.738Z,6.33
2023-03-21T10:21:47.585Z,8.40
2023-03-21T10:24:13.094Z,5.70
2023-03-21T10:26:40.908Z,4.67
2023-03-21T10:29:08.993Z,5.30
2023-03-21T10:31:36.571Z,6.70
2023-03-21T10:34:13.161Z,8.07
2023-03-21T10:36:40.736Z,7.33
2023-03-21T10:39:14.018Z,5.67
2023-03-21T10:41:41.569Z,5.30
2023-03-21T10:44:11.497Z,8.47
2023-03-21T10:46:39.333Z,9.80
2023-03-21T10:49:09.525Z,5.90
2023-03-21T10:51:37.933Z,7.20
2023-03-21T10:54:07.516Z,7.50
2023-03-21T10:56:38.734Z,11.57
2023-03-21T10:59:08.086Z,9.13
2023-03-21T11:01:37.895Z,9.50
2023-03-21T11:04:11.173Z,5.07
2023-03-21T11:06:40.570Z,9.87
2023-03-21T11:09:13.144Z,8.03
2023-03-21T11:11:42.454Z,8.50
2023-03-21T11:14:26.087Z,10.00
2023-03-21T11:16:53.703Z,9.77
2023-03-21T11:19:30.677Z,5.07
2023-03-21T11:21:58.910Z,9.83
2023-03-21T11:24:30.154Z,10.87
2023-03-21T11:26:58.739Z,8.70
2023-03-21T11:29:31.849Z,7.30
2023-03-21T11:32:02.076Z,9.50
2023-03-21T11:34:34.416Z,12.47
2023-03-21T11:37:03.926Z,6.57
2023-03-21T11:39:34.366Z,9.70
2023-03-21T11:42:01.830Z,6.50
2023-03-21T11:44:32.221Z,10.30
2023-03-21T11:46:59.857Z,9.17
2023-03-21T11:49:27.868Z,9.70
2023-03-21T11:52:04.708Z,9.10
2023-03-21T11:54:38.119Z,8.73
2023-03-21T11:57:09.698Z,8.03
2023-03-21T11:59:44.325Z,9.70
2023-03-21T12:02:41.501Z,7.27
2023-03-21T12:05:17.150Z,8.43
2023-03-21T12:07:52.917Z,7.30
2023-03-21T12:10:38.086Z,9.97
2023-03-21T12:13:15.866Z,8.90
2023-03-21T12:15:52.212Z,7.93
2023-03-21T12:18:43.854Z,6.10
2023-03-21T12:21:15.919Z,8.03
2023-03-21T12:23:49.657Z,9.70
2023-03-21T12:26:24.161Z,12.67
2023-03-21T12:29:06.125Z,8.60
2023-03-21T12:31:45.511Z,8.50
2023-03-21T12:34:24.440Z,8.43
2023-03-21T12:37:02.134Z,12.50
2023-03-21T12:39:32.654Z,12.70
2023-03-21T12:42:29.078Z,8.27
2023-03-21T12:45:00.789Z,8.67
2023-03-21T12:47:31.756Z,10.17
2023-03-21T12:50:01.715Z,10.73
2023-03-21T12:52:32.823Z,8.27
2023-03-21T12:55:03.551Z,8.23
2023-03-21T12:57:35.629Z,11.87
2023-03-21T13:00:10.584Z,8.40
2023-03-21T13:02:40.545Z,7.83
2023-03-21T13:05:16.796Z,9.03
2023-03-21T13:07:46.941Z,11.43
2023-03-21T13:10:20.741Z,8.37
2023-03-21T13:13:09.726Z,11.30
2023-03-21T13:15:50.761Z,11.33
2023-03-21T13:18:27.010Z,12.50
2023-03-21T13:20:56.238Z,11.77
2023-03-21T13:23:24.722Z,8.30
2023-03-21T13:25:55.395Z,10.47
2023-03-21T13:28:27.162Z,12.23
2023-03-21T13:30:54.859Z,8.30
2023-03-21T13:33:25.838Z,10.30
2023-03-21T13:36:05.160Z,7.47
2023-03-21T13:38:33.657Z,8.20
2023-03-21T13:41:07.021Z,8.07
2023-03-21T13:43:44.323Z,8.40
2023-03-21T13:46:13.182Z,8.23
2023-03-21T13:48:57.765Z,5.03
2023-03-21T13:51:43.050Z,6.37
2023-03-21T13:54:24.232Z,5.03
2023-03-21T13:56:55.655Z,8.13
2023-03-21T13:59:38.734Z,5.73
2023-03-21T14:02:23.609Z,5.17
2023-03-21T14:05:05.249Z,5.77
2023-03-21T14:07:34.564Z,6.90
2023-03-21T14:10:05.027Z,5.57
2023-03-21T14:12:39.416Z,4.93
2023-03-21T14:15:16.207Z,5.33
2023-03-21T14:17:51.762Z,8.00
2023-03-21T14:20:21.952Z,5.83
2023-03-21T14:22:49.768Z,7.77
2023-03-21T14:25:18.761Z,5.87
2023-03-21T14:27:49.742Z,6.03
2023-03-21T14:30:23.053Z,4.93
2023-03-21T14:32:50.646Z,8.77
2023-03-21T14:35:18.405Z,10.80
2023-03-21T14:37:47.071Z,7.10
2023-03-21T14:40:23.402Z,6.67
2023-03-21T14:42:53.046Z,6.47
2023-03-21T14:45:22.846Z,7.70
2023-03-21T14:47:59.280Z,8.97
2023-03-21T14:50:33.248Z,7.13
2023-03-21T14:53:01.105Z,6.10
2023-03-21T14:55:28.802Z,7.10
2023-03-21T14:57:57.832Z,7.57
2023-03-21T15:00:27.930Z,6.97
2023-03-21T15:02:56.135Z,7.27
2023-03-21T15:05:26.958Z,12.73
2023-03-21T15:07:56.658Z,13.53
2023-03-21T15:10:24.914Z,9.00
2023-03-21T15:12:53.612Z,6.37
2023-03-21T15:15:25.966Z,6.43
2023-03-21T15:17:55.839Z,9.17
2023-03-21T15:20:26.147Z,10.03
2023-03-21T15:22:55.809Z,6.13
2023-03-21T15:25:26.646Z,7.03
2023-03-21T15:27:55.534Z,11.73
2023-03-21T15:30:26.577Z,10.23
2023-03-21T15:32:54.482Z,8.50
2023-03-21T15:35:25.913Z,11.87
2023-03-21T15:37:56.611Z,9.80
2023-03-21T15:40:26.381Z,12.30
2023-03-21T15:43:05.757Z,9.00
2023-03-21T15:45:34.890Z,9.50
2023-03-21T15:48:04.311Z,8.43
2023-03-21T15:50:36.583Z,8.70
2023-03-21T15:53:07.658Z,9.30
2023-03-21T15:55:42.507Z,7.73
2023-03-21T15:58:16.959Z,6.70
2023-03-21T16:00:52.182Z,6.23
2023-03-21T16:03:24.477Z,7.20
2023-03-21T16:06:07.473Z,8.70
2023-03-21T16:08:36.858Z,7.53
2023-03-21T16:11:09.577Z,11.13
2023-03-21T16:13:37.125Z,9.50
2023-03-21T16:16:06.630Z,6.73
2023-03-21T16:18:34.384Z,8.07
2023-03-21T16:21:01.932Z,7.27
2023-03-21T16:23:29.820Z,6.90
2023-03-21T16:25:58.872Z,11.00
2023-03-21T16:28:26.362Z,5.70
2023-03-21T16:30:54.483Z,6.07
2023-03-21T16:33:25.357Z,11.43
2023-03-21T16:35:53.993Z,9.27
2023-03-21T16:38:21.479Z,10.63
2023-03-21T16:40:49.007Z,10.30
2023-03-21T16:43:16.441Z,8.53
2023-03-21T16:45:43.952Z,8.77
2023-03-21T16:48:16.269Z,13.13
2023-03-21T16:50:48.505Z,8.30
2023-03-21T16:53:17.011Z,12.53
2023-03-21T16:55:44.472Z,15.57
2023-03-21T16:58:15.647Z,11.00
2023-03-21T17:00:43.390Z,9.77
2023-03-21T17:03:15.305Z,7.30
2023-03-21T17:05:42.952Z,7.70
2023-03-21T17:08:16.029Z,8.63
2023-03-21T17:10:43.546Z,6.10
2023-03-21T17:13:11.840Z,9.57
2023-03-21T17:15:41.368Z,14.00
2023-03-21T17:18:08.839Z,10.13
2023-03-21T17:20:38.204Z,9.17
2023-03-21T17:23:05.903Z,9.63
2023-03-21T17:25:35.197Z,9.47
2023-03-21T17:28:02.847Z,7.70
2023-03-21T17:30:31.956Z,7.97
2023-03-21T17:32:59.599Z,11.70
2023-03-21T17:35:27.718Z,8.70
2023-03-21T17:37:58.727Z,10.83
2023-03-21T17:40:28.315Z,8.30
2023-03-21T17:42:57.903Z,8.20
2023-03-21T17:45:25.838Z,11.17
2023-03-21T17:47:54.746Z,13.40
2023-03-21T17:50:24.372Z,9.07
2023-03-21T17:52:52.153Z,11.17
2023-03-21T17:55:21.271Z,10.37
2023-03-21T17:57:49.669Z,11.20
2023-03-21T18:00:21.144Z,9.27
2023-03-21T18:02:48.621Z,17.57
2023-03-21T18:05:16.749Z,8.00
2023-03-21T18:10:32.368Z,11.30
2023-03-21T18:13:00.190Z,10.37
2023-03-21T18:15:30.508Z,13.50
2023-03-21T18:17:58.533Z,11.80
2023-03-21T18:20:44.605Z,8.00
2023-03-21T18:23:14.825Z,11.17
2023-03-21T18:25:42.604Z,11.47
2023-03-21T18:28:12.349Z,9.67
2023-03-21T18:31:04.807Z,9.17
2023-03-21T18:33:29.911Z,13.10
2023-03-21T18:35:59.640Z,11.90
2023-03-21T18:38:27.679Z,10.00
2023-03-21T18:40:55.707Z,12.93
2023-03-21T18:46:12.642Z,11.33
2023-03-21T18:48:40.268Z,14.77
2023-03-21T18:51:09.511Z,10.87
2023-03-21T18:53:38.091Z,12.10
2023-03-21T18:56:10.158Z,10.10
2023-03-21T18:58:38.474Z,12.20
2023-03-21T19:01:06.299Z,10.93
2023-03-21T19:03:37.309Z,10.87
2023-03-21T19:06:06.400Z,16.30
2023-03-21T19:08:34.832Z,11.17
2023-03-21T19:11:06.007Z,10.00
2023-03-21T19:13:34.772Z,14.57
2023-03-21T19:16:03.144Z,13.93
2023-03-21T19:18:49.949Z,9.57
2023-03-21T19:21:21.537Z,12.90
2023-03-21T19:26:36.491Z,11.17
2023-03-21T19:29:03.962Z,12.13
2023-03-21T19:31:31.743Z,8.50
2023-03-21T19:33:59.792Z,10.40
2023-03-21T19:36:28.747Z,9.50
2023-03-21T19:38:56.301Z,11.27
2023-03-21T19:41:23.892Z,11.17
2023-03-21T19:43:55.142Z,10.33
2023-03-21T19:46:24.990Z,11.87
2023-03-21T19:48:56.109Z,12.40
2023-03-21T19:51:28.753Z,13.93
2023-03-21T19:53:58.863Z,13.10
2023-03-21T19:56:27.805Z,10.83
2023-03-21T19:58:55.956Z,13.90
2023-03-21T20:01:25.040Z,10.40
2023-03-21T20:03:52.914Z,12.40
2023-03-21T20:06:22.137Z,12.83
2023-03-21T20:09:27.298Z,14.37
2023-03-21T20:11:38.816Z,15.30
2023-03-21T20:14:06.931Z,19.10
2023-03-21T20:16:36.474Z,15.13
2023-03-21T20:19:05.853Z,16.90
2023-03-21T20:21:44.409Z,14.97
2023-03-21T20:24:16.202Z,16.40
2023-03-21T20:26:46.344Z,13.87
2023-03-21T20:32:01.730Z,16.37
2023-03-21T20:34:30.560Z,17.97
2023-03-21T20:36:58.542Z,12.70
2023-03-21T20:39:29.472Z,14.17
2023-03-21T20:41:59.569Z,15.30
2023-03-21T20:44:48.461Z,13.60
2023-03-21T20:47:16.068Z,13.70
2023-03-21T20:49:44.131Z,13.83
2023-03-21T20:54:59.553Z,13.70
2023-03-21T20:57:28.666Z,13.30
2023-03-21T20:59:56.145Z,14.00
2023-03-21T21:02:24.605Z,11.07
2023-03-21T21:05:23.745Z,14.10
2023-03-21T21:07:41.719Z,14.30
2023-03-21T21:10:10.881Z,14.70
2023-03-21T21:12:42.041Z,10.03
2023-03-21T21:15:11.101Z,11.80
2023-03-21T21:18:05.570Z,11.73
2023-03-21T21:20:27.504Z,12.53
2023-03-21T21:23:00.496Z,13.70
2023-03-21T21:25:28.816Z,15.97
2023-03-21T21:27:57.647Z,18.50
2023-03-21T21:30:25.452Z,15.83
2023-03-21T21:32:53.865Z,14.47
2023-03-21T21:35:22.245Z,16.10
2023-03-21T21:37:51.036Z,13.57
2023-03-21T21:40:20.584Z,12.23
2023-03-21T21:42:48.256Z,15.07
2023-03-21T21:45:18.277Z,16.10
2023-03-21T21:47:46.451Z,12.30
2023-03-21T21:50:14.198Z,13.00
2023-03-21T21:52:43.923Z,17.77
2023-03-21T21:55:13.031Z,11.37
2023-03-21T21:57:41.024Z,13.90
2023-03-21T22:00:13.030Z,20.73
2023-03-21T22:02:42.036Z,11.80
2023-03-21T22:05:10.480Z,14.00
2023-03-21T22:07:39.022Z,13.57
2023-03-21T22:10:07.940Z,13.93
2023-03-21T22:12:35.471Z,15.20
2023-03-21T22:15:03.929Z,12.03
2023-03-21T22:17:31.635Z,13.77
2023-03-21T22:20:06.016Z,11.40
2023-03-21T22:22:34.713Z,14.20
2023-03-21T22:25:02.420Z,14.53
2023-03-21T22:27:29.899Z,13.17
2023-03-21T22:29:57.585Z,15.20
2023-03-21T22:32:25.584Z,15.97
2023-03-21T22:34:53.525Z,17.87
2023-03-21T22:37:22.340Z,18.60
2023-03-21T22:39:49.802Z,18.87
2023-03-21T22:42:17.283Z,17.57
2023-03-21T22:44:44.781Z,17.50
2023-03-21T22:47:12.438Z,16.83
2023-03-21T22:49:42.328Z,16.93
2023-03-21T22:52:10.684Z,19.27
2023-03-21T22:54:39.916Z,17.90
2023-03-21T22:57:08.473Z,16.00
2023-03-21T22:59:36.010Z,19.97
2023-03-21T23:02:03.561Z,17.17
2023-03-21T23:04:31.290Z,21.70
2023-03-21T23:06:59.050Z,23.50
2023-03-21T23:09:27.222Z,20.50
2023-03-21T23:11:56.072Z,26.33
2023-03-21T23:14:23.727Z,23.43
2023-03-21T23:16:52.585Z,20.57
2023-03-21T23:19:20.798Z,22.77
2023-03-21T23:21:48.981Z,21.37
2023-03-21T23:24:16.663Z,20.27
2023-03-21T23:26:44.198Z,20.63
2023-03-21T23:29:13.909Z,17.17
2023-03-21T23:31:41.478Z,18.20
2023-03-21T23:34:09.005Z,18.97
2023-03-21T23:36:36.599Z,17.83
2023-03-21T23:39:04.378Z,19.10
2023-03-21T23:41:31.941Z,22.83
2023-03-21T23:43:59.433Z,19.87
2023-03-21T23:46:28.359Z,17.13
2023-03-21T23:48:55.887Z,18.10
2023-03-21T23:51:23.464Z,17.47
2023-03-21T23:53:51.402Z,15.33
2023-03-21T23:56:20.988Z,20.13
2023-03-21T23:58:49.691Z,15.93
